sensor_id;sensor_type;location;lat;lon;timestamp;P1;durP1;ratioP1;P2;durP2;ratioP2
25511;SDS011;13414;44.534;18.700;2024-02-26T00:02:05;160.95;;;89.80;;
25511;SDS011;13414;44.534;18.700;2024-02-26T00:04:32;164.52;;;94.30;;
25511;SDS011;13414;44.534;18.700;2024-02-26T00:07:00;184.38;;;101.63;;
25511;SDS011;13414;44.534;18.700;2024-02-26T00:09:27;167.82;;;95.18;;
25511;SDS011;13414;44.534;18.700;2024-02-26T00:11:55;169.13;;;92.63;;
25511;SDS011;13414;44.534;18.700;2024-02-26T00:14:24;226.70;;;105.70;;
25511;SDS011;13414;44.534;18.700;2024-02-26T00:16:53;186.48;;;100.20;;
25511;SDS011;13414;44.534;18.700;2024-02-26T00:19:22;188.48;;;102.53;;
25511;SDS011;13414;44.534;18.700;2024-02-26T00:21:50;196.75;;;102.15;;
25511;SDS011;13414;44.534;18.700;2024-02-26T00:24:19;173.88;;;94.13;;
25511;SDS011;13414;44.534;18.700;2024-02-26T00:26:47;159.48;;;88.97;;
25511;SDS011;13414;44.534;18.700;2024-02-26T00:29:18;146.90;;;81.90;;
25511;SDS011;13414;44.534;18.700;2024-02-26T00:31:46;146.00;;;78.68;;
25511;SDS011;13414;44.534;18.700;2024-02-26T00:34:18;132.25;;;73.50;;
25511;SDS011;13414;44.534;18.700;2024-02-26T00:36:51;127.47;;;74.13;;
25511;SDS011;13414;44.534;18.700;2024-02-26T00:39:19;146.90;;;90.35;;
25511;SDS011;13414;44.534;18.700;2024-02-26T00:41:54;147.68;;;93.70;;
25511;SDS011;13414;44.534;18.700;2024-02-26T00:46:55;135.07;;;86.97;;
25511;SDS011;13414;44.534;18.700;2024-02-26T00:49:24;137.57;;;86.38;;
25511;SDS011;13414;44.534;18.700;2024-02-26T00:51:52;134.35;;;83.93;;
25511;SDS011;13414;44.534;18.700;2024-02-26T00:54:19;148.18;;;87.20;;
25511;SDS011;13414;44.534;18.700;2024-02-26T00:56:48;155.32;;;91.22;;
25511;SDS011;13414;44.534;18.700;2024-02-26T00:59:18;129.32;;;79.75;;
25511;SDS011;13414;44.534;18.700;2024-02-26T01:01:47;143.13;;;79.20;;
25511;SDS011;13414;44.534;18.700;2024-02-26T01:04:16;130.90;;;71.20;;
25511;SDS011;13414;44.534;18.700;2024-02-26T01:06:45;144.07;;;74.47;;
25511;SDS011;13414;44.534;18.700;2024-02-26T01:09:12;147.48;;;74.40;;
25511;SDS011;13414;44.534;18.700;2024-02-26T01:11:41;144.07;;;71.38;;
25511;SDS011;13414;44.534;18.700;2024-02-26T01:14:08;132.77;;;66.10;;
25511;SDS011;13414;44.534;18.700;2024-02-26T01:16:36;152.13;;;74.32;;
25511;SDS011;13414;44.534;18.700;2024-02-26T01:19:03;167.68;;;78.43;;
25511;SDS011;13414;44.534;18.700;2024-02-26T01:21:31;168.80;;;74.47;;
25511;SDS011;13414;44.534;18.700;2024-02-26T01:24:01;179.40;;;78.30;;
25511;SDS011;13414;44.534;18.700;2024-02-26T01:26:31;133.38;;;67.63;;
25511;SDS011;13414;44.534;18.700;2024-02-26T01:28:58;127.07;;;66.97;;
25511;SDS011;13414;44.534;18.700;2024-02-26T01:31:26;126.50;;;70.90;;
25511;SDS011;13414;44.534;18.700;2024-02-26T01:33:54;125.63;;;67.95;;
25511;SDS011;13414;44.534;18.700;2024-02-26T01:36:21;134.88;;;77.32;;
25511;SDS011;13414;44.534;18.700;2024-02-26T01:38:49;123.53;;;68.15;;
25511;SDS011;13414;44.534;18.700;2024-02-26T01:41:22;126.43;;;70.47;;
25511;SDS011;13414;44.534;18.700;2024-02-26T01:43:49;133.15;;;71.47;;
25511;SDS011;13414;44.534;18.700;2024-02-26T01:46:17;137.57;;;72.72;;
25511;SDS011;13414;44.534;18.700;2024-02-26T01:48:45;134.05;;;71.85;;
25511;SDS011;13414;44.534;18.700;2024-02-26T01:53:55;120.55;;;66.25;;
25511;SDS011;13414;44.534;18.700;2024-02-26T01:56:24;115.90;;;66.13;;
25511;SDS011;13414;44.534;18.700;2024-02-26T01:58:56;110.50;;;63.33;;
25511;SDS011;13414;44.534;18.700;2024-02-26T02:01:24;105.13;;;59.47;;
25511;SDS011;13414;44.534;18.700;2024-02-26T02:03:53;148.23;;;76.75;;
25511;SDS011;13414;44.534;18.700;2024-02-26T02:06:23;167.85;;;85.53;;
25511;SDS011;13414;44.534;18.700;2024-02-26T02:08:51;157.75;;;84.45;;
25511;SDS011;13414;44.534;18.700;2024-02-26T02:11:19;178.73;;;84.93;;
25511;SDS011;13414;44.534;18.700;2024-02-26T02:13:48;167.43;;;80.70;;
25511;SDS011;13414;44.534;18.700;2024-02-26T02:16:16;152.98;;;72.95;;
25511;SDS011;13414;44.534;18.700;2024-02-26T02:18:43;208.63;;;82.22;;
25511;SDS011;13414;44.534;18.700;2024-02-26T02:21:13;191.13;;;93.82;;
25511;SDS011;13414;44.534;18.700;2024-02-26T02:23:40;233.30;;;103.45;;
25511;SDS011;13414;44.534;18.700;2024-02-26T02:26:11;232.32;;;99.85;;
25511;SDS011;13414;44.534;18.700;2024-02-26T02:28:40;397.55;;;118.03;;
25511;SDS011;13414;44.534;18.700;2024-02-26T02:31:08;242.80;;;103.90;;
25511;SDS011;13414;44.534;18.700;2024-02-26T02:33:37;243.77;;;99.60;;
25511;SDS011;13414;44.534;18.700;2024-02-26T02:36:05;218.75;;;97.88;;
25511;SDS011;13414;44.534;18.700;2024-02-26T02:38:37;350.77;;;107.75;;
25511;SDS011;13414;44.534;18.700;2024-02-26T02:41:04;272.23;;;95.00;;
25511;SDS011;13414;44.534;18.700;2024-02-26T02:43:32;353.17;;;98.50;;
25511;SDS011;13414;44.534;18.700;2024-02-26T02:45:59;177.98;;;78.70;;
25511;SDS011;13414;44.534;18.700;2024-02-26T02:48:27;144.15;;;74.50;;
25511;SDS011;13414;44.534;18.700;2024-02-26T02:51:09;252.63;;;104.07;;
25511;SDS011;13414;44.534;18.700;2024-02-26T02:53:38;222.18;;;92.55;;
25511;SDS011;13414;44.534;18.700;2024-02-26T02:56:06;165.50;;;80.10;;
25511;SDS011;13414;44.534;18.700;2024-02-26T02:58:34;178.07;;;87.60;;
25511;SDS011;13414;44.534;18.700;2024-02-26T03:01:01;153.52;;;78.22;;
25511;SDS011;13414;44.534;18.700;2024-02-26T03:03:29;140.88;;;62.60;;
25511;SDS011;13414;44.534;18.700;2024-02-26T03:05:57;125.72;;;63.83;;
25511;SDS011;13414;44.534;18.700;2024-02-26T03:08:27;108.70;;;58.38;;
25511;SDS011;13414;44.534;18.700;2024-02-26T03:10:57;107.45;;;59.65;;
25511;SDS011;13414;44.534;18.700;2024-02-26T03:13:25;124.47;;;56.08;;
25511;SDS011;13414;44.534;18.700;2024-02-26T03:15:53;133.48;;;56.83;;
25511;SDS011;13414;44.534;18.700;2024-02-26T03:18:21;104.80;;;48.00;;
25511;SDS011;13414;44.534;18.700;2024-02-26T03:20:49;107.95;;;47.60;;
25511;SDS011;13414;44.534;18.700;2024-02-26T03:23:17;143.63;;;55.92;;
25511;SDS011;13414;44.534;18.700;2024-02-26T03:25:46;119.18;;;52.10;;
25511;SDS011;13414;44.534;18.700;2024-02-26T03:28:20;94.07;;;49.95;;
25511;SDS011;13414;44.534;18.700;2024-02-26T03:34:02;88.43;;;46.88;;
25511;SDS011;13414;44.534;18.700;2024-02-26T03:36:30;102.78;;;44.50;;
25511;SDS011;13414;44.534;18.700;2024-02-26T03:39:00;98.50;;;49.90;;
25511;SDS011;13414;44.534;18.700;2024-02-26T03:41:33;90.25;;;47.33;;
25511;SDS011;13414;44.534;18.700;2024-02-26T03:44:17;81.60;;;40.83;;
25511;SDS011;13414;44.534;18.700;2024-02-26T03:46:45;68.80;;;36.35;;
25511;SDS011;13414;44.534;18.700;2024-02-26T03:49:13;72.68;;;35.42;;
25511;SDS011;13414;44.534;18.700;2024-02-26T03:51:45;55.75;;;35.22;;
25511;SDS011;13414;44.534;18.700;2024-02-26T03:54:12;73.68;;;40.10;;
25511;SDS011;13414;44.534;18.700;2024-02-26T03:56:42;77.63;;;42.25;;
25511;SDS011;13414;44.534;18.700;2024-02-26T03:59:20;78.20;;;42.25;;
25511;SDS011;13414;44.534;18.700;2024-02-26T04:01:52;79.40;;;39.22;;
25511;SDS011;13414;44.534;18.700;2024-02-26T04:04:21;68.32;;;38.88;;
25511;SDS011;13414;44.534;18.700;2024-02-26T04:09:27;85.57;;;48.72;;
25511;SDS011;13414;44.534;18.700;2024-02-26T04:12:10;113.30;;;59.72;;
25511;SDS011;13414;44.534;18.700;2024-02-26T04:15:13;80.90;;;47.85;;
25511;SDS011;13414;44.534;18.700;2024-02-26T04:18:02;72.47;;;44.85;;
25511;SDS011;13414;44.534;18.700;2024-02-26T04:20:37;74.38;;;47.13;;
25511;SDS011;13414;44.534;18.700;2024-02-26T04:23:14;73.25;;;47.00;;
25511;SDS011;13414;44.534;18.700;2024-02-26T04:25:52;84.50;;;49.58;;
25511;SDS011;13414;44.534;18.700;2024-02-26T04:28:21;73.05;;;48.17;;
25511;SDS011;13414;44.534;18.700;2024-02-26T04:30:58;84.25;;;50.30;;
25511;SDS011;13414;44.534;18.700;2024-02-26T04:33:27;104.25;;;51.42;;
25511;SDS011;13414;44.534;18.700;2024-02-26T04:35:57;98.63;;;53.40;;
25511;SDS011;13414;44.534;18.700;2024-02-26T04:38:30;83.35;;;49.25;;
25511;SDS011;13414;44.534;18.700;2024-02-26T04:40:58;85.85;;;51.97;;
25511;SDS011;13414;44.534;18.700;2024-02-26T04:43:33;76.70;;;46.55;;
25511;SDS011;13414;44.534;18.700;2024-02-26T04:46:14;173.65;;;50.95;;
25511;SDS011;13414;44.534;18.700;2024-02-26T04:48:45;115.78;;;47.28;;
25511;SDS011;13414;44.534;18.700;2024-02-26T04:51:13;85.38;;;44.38;;
25511;SDS011;13414;44.534;18.700;2024-02-26T04:53:50;85.00;;;46.15;;
25511;SDS011;13414;44.534;18.700;2024-02-26T04:56:19;94.65;;;43.15;;
25511;SDS011;13414;44.534;18.700;2024-02-26T04:58:47;82.00;;;42.05;;
25511;SDS011;13414;44.534;18.700;2024-02-26T05:01:19;108.88;;;46.03;;
25511;SDS011;13414;44.534;18.700;2024-02-26T05:03:46;94.10;;;43.65;;
25511;SDS011;13414;44.534;18.700;2024-02-26T05:06:14;107.30;;;46.38;;
25511;SDS011;13414;44.534;18.700;2024-02-26T05:08:42;100.22;;;46.83;;
25511;SDS011;13414;44.534;18.700;2024-02-26T05:11:11;78.50;;;44.42;;
25511;SDS011;13414;44.534;18.700;2024-02-26T05:13:40;79.05;;;41.50;;
25511;SDS011;13414;44.534;18.700;2024-02-26T05:16:13;93.47;;;42.88;;
25511;SDS011;13414;44.534;18.700;2024-02-26T05:18:45;103.07;;;45.38;;
25511;SDS011;13414;44.534;18.700;2024-02-26T05:21:15;121.10;;;46.47;;
25511;SDS011;13414;44.534;18.700;2024-02-26T05:23:46;108.15;;;49.72;;
25511;SDS011;13414;44.534;18.700;2024-02-26T05:26:18;131.90;;;49.05;;
25511;SDS011;13414;44.534;18.700;2024-02-26T05:28:47;272.92;;;57.85;;
25511;SDS011;13414;44.534;18.700;2024-02-26T05:31:15;112.15;;;50.33;;
25511;SDS011;13414;44.534;18.700;2024-02-26T05:33:44;169.68;;;60.35;;
25511;SDS011;13414;44.534;18.700;2024-02-26T05:36:17;154.63;;;58.78;;
25511;SDS011;13414;44.534;18.700;2024-02-26T05:38:46;175.25;;;54.70;;
25511;SDS011;13414;44.534;18.700;2024-02-26T05:41:15;323.55;;;66.50;;
25511;SDS011;13414;44.534;18.700;2024-02-26T05:43:48;123.68;;;59.00;;
25511;SDS011;13414;44.534;18.700;2024-02-26T05:46:16;211.07;;;66.50;;
25511;SDS011;13414;44.534;18.700;2024-02-26T05:48:48;137.52;;;57.80;;
25511;SDS011;13414;44.534;18.700;2024-02-26T05:51:18;143.32;;;56.65;;
25511;SDS011;13414;44.534;18.700;2024-02-26T05:53:46;119.53;;;58.08;;
25511;SDS011;13414;44.534;18.700;2024-02-26T05:56:19;237.85;;;71.38;;
25511;SDS011;13414;44.534;18.700;2024-02-26T05:58:47;207.15;;;69.40;;
25511;SDS011;13414;44.534;18.700;2024-02-26T06:01:15;164.77;;;74.70;;
25511;SDS011;13414;44.534;18.700;2024-02-26T06:03:43;141.70;;;66.65;;
25511;SDS011;13414;44.534;18.700;2024-02-26T06:06:12;167.88;;;71.28;;
25511;SDS011;13414;44.534;18.700;2024-02-26T06:08:40;235.68;;;75.90;;
25511;SDS011;13414;44.534;18.700;2024-02-26T06:11:08;163.18;;;64.57;;
25511;SDS011;13414;44.534;18.700;2024-02-26T06:13:36;178.63;;;67.35;;
25511;SDS011;13414;44.534;18.700;2024-02-26T06:16:07;131.02;;;60.28;;
25511;SDS011;13414;44.534;18.700;2024-02-26T06:18:35;152.18;;;70.95;;
25511;SDS011;13414;44.534;18.700;2024-02-26T06:21:03;251.38;;;85.18;;
25511;SDS011;13414;44.534;18.700;2024-02-26T06:23:32;216.30;;;85.93;;
25511;SDS011;13414;44.534;18.700;2024-02-26T06:26:00;151.57;;;74.05;;
25511;SDS011;13414;44.534;18.700;2024-02-26T06:28:28;156.38;;;75.18;;
25511;SDS011;13414;44.534;18.700;2024-02-26T06:30:58;145.15;;;71.65;;
25511;SDS011;13414;44.534;18.700;2024-02-26T06:33:27;159.95;;;72.75;;
25511;SDS011;13414;44.534;18.700;2024-02-26T06:35:58;339.88;;;85.93;;
25511;SDS011;13414;44.534;18.700;2024-02-26T06:38:26;143.48;;;71.82;;
25511;SDS011;13414;44.534;18.700;2024-02-26T06:40:55;194.07;;;81.65;;
25511;SDS011;13414;44.534;18.700;2024-02-26T06:43:23;159.95;;;66.90;;
25511;SDS011;13414;44.534;18.700;2024-02-26T06:45:52;125.55;;;64.95;;
25511;SDS011;13414;44.534;18.700;2024-02-26T06:48:19;100.00;;;55.22;;
25511;SDS011;13414;44.534;18.700;2024-02-26T06:50:48;102.97;;;48.70;;
25511;SDS011;13414;44.534;18.700;2024-02-26T06:53:16;97.65;;;50.72;;
25511;SDS011;13414;44.534;18.700;2024-02-26T06:55:44;110.88;;;55.38;;
25511;SDS011;13414;44.534;18.700;2024-02-26T06:58:15;111.60;;;52.30;;
25511;SDS011;13414;44.534;18.700;2024-02-26T07:00:45;111.80;;;53.78;;
25511;SDS011;13414;44.534;18.700;2024-02-26T07:03:15;99.13;;;49.28;;
25511;SDS011;13414;44.534;18.700;2024-02-26T07:05:43;98.50;;;47.17;;
25511;SDS011;13414;44.534;18.700;2024-02-26T07:08:11;100.60;;;48.03;;
25511;SDS011;13414;44.534;18.700;2024-02-26T07:10:39;89.50;;;47.00;;
25511;SDS011;13414;44.534;18.700;2024-02-26T07:13:06;150.07;;;49.90;;
25511;SDS011;13414;44.534;18.700;2024-02-26T07:15:37;75.60;;;35.58;;
25511;SDS011;13414;44.534;18.700;2024-02-26T07:18:06;71.10;;;39.17;;
25511;SDS011;13414;44.534;18.700;2024-02-26T07:20:37;93.38;;;39.08;;
25511;SDS011;13414;44.534;18.700;2024-02-26T07:23:04;104.63;;;42.38;;
25511;SDS011;13414;44.534;18.700;2024-02-26T07:25:32;70.28;;;41.33;;
25511;SDS011;13414;44.534;18.700;2024-02-26T07:28:00;76.13;;;43.03;;
25511;SDS011;13414;44.534;18.700;2024-02-26T07:30:42;74.32;;;43.78;;
25511;SDS011;13414;44.534;18.700;2024-02-26T07:33:40;84.10;;;46.42;;
25511;SDS011;13414;44.534;18.700;2024-02-26T07:36:11;95.75;;;48.80;;
25511;SDS011;13414;44.534;18.700;2024-02-26T07:38:44;82.25;;;45.38;;
25511;SDS011;13414;44.534;18.700;2024-02-26T07:41:24;79.32;;;45.15;;
25511;SDS011;13414;44.534;18.700;2024-02-26T07:43:51;85.50;;;46.78;;
25511;SDS011;13414;44.534;18.700;2024-02-26T07:52:58;85.22;;;49.08;;
25511;SDS011;13414;44.534;18.700;2024-02-26T07:55:46;86.72;;;48.88;;
25511;SDS011;13414;44.534;18.700;2024-02-26T07:58:48;81.97;;;46.53;;
25511;SDS011;13414;44.534;18.700;2024-02-26T08:01:43;78.18;;;46.13;;
25511;SDS011;13414;44.534;18.700;2024-02-26T08:04:12;79.18;;;44.60;;
25511;SDS011;13414;44.534;18.700;2024-02-26T08:06:47;79.45;;;46.65;;
25511;SDS011;13414;44.534;18.700;2024-02-26T08:09:38;82.47;;;48.80;;
25511;SDS011;13414;44.534;18.700;2024-02-26T08:12:06;81.15;;;49.17;;
25511;SDS011;13414;44.534;18.700;2024-02-26T08:14:37;74.88;;;48.95;;
25511;SDS011;13414;44.534;18.700;2024-02-26T08:17:10;76.10;;;46.78;;
25511;SDS011;13414;44.534;18.700;2024-02-26T08:19:38;81.35;;;49.88;;
25511;SDS011;13414;44.534;18.700;2024-02-26T08:22:05;81.63;;;48.85;;
25511;SDS011;13414;44.534;18.700;2024-02-26T08:24:37;78.03;;;48.38;;
25511;SDS011;13414;44.534;18.700;2024-02-26T08:27:06;80.50;;;49.70;;
25511;SDS011;13414;44.534;18.700;2024-02-26T08:29:33;85.88;;;46.60;;
25511;SDS011;13414;44.534;18.700;2024-02-26T08:32:01;75.43;;;46.85;;
25511;SDS011;13414;44.534;18.700;2024-02-26T08:34:29;73.97;;;46.78;;
25511;SDS011;13414;44.534;18.700;2024-02-26T08:36:56;73.68;;;46.63;;
25511;SDS011;13414;44.534;18.700;2024-02-26T08:39:24;77.28;;;47.30;;
25511;SDS011;13414;44.534;18.700;2024-02-26T08:41:53;72.78;;;44.67;;
25511;SDS011;13414;44.534;18.700;2024-02-26T08:44:21;70.25;;;44.63;;
25511;SDS011;13414;44.534;18.700;2024-02-26T08:46:48;72.25;;;44.28;;
25511;SDS011;13414;44.534;18.700;2024-02-26T08:49:17;74.00;;;44.88;;
25511;SDS011;13414;44.534;18.700;2024-02-26T08:51:50;68.22;;;43.85;;
25511;SDS011;13414;44.534;18.700;2024-02-26T08:54:19;69.57;;;43.35;;
25511;SDS011;13414;44.534;18.700;2024-02-26T08:56:47;70.80;;;46.33;;
25511;SDS011;13414;44.534;18.700;2024-02-26T08:59:22;73.85;;;47.40;;
25511;SDS011;13414;44.534;18.700;2024-02-26T09:01:49;62.78;;;42.45;;
25511;SDS011;13414;44.534;18.700;2024-02-26T09:04:17;64.38;;;42.47;;
25511;SDS011;13414;44.534;18.700;2024-02-26T09:06:44;66.28;;;42.30;;
25511;SDS011;13414;44.534;18.700;2024-02-26T09:09:12;64.18;;;41.80;;
25511;SDS011;13414;44.534;18.700;2024-02-26T09:11:40;64.45;;;41.83;;
25511;SDS011;13414;44.534;18.700;2024-02-26T09:14:10;58.10;;;40.83;;
25511;SDS011;13414;44.534;18.700;2024-02-26T09:16:41;69.45;;;44.40;;
25511;SDS011;13414;44.534;18.700;2024-02-26T09:19:12;54.75;;;37.65;;
25511;SDS011;13414;44.534;18.700;2024-02-26T09:21:42;55.35;;;36.90;;
25511;SDS011;13414;44.534;18.700;2024-02-26T09:24:10;54.53;;;36.22;;
25511;SDS011;13414;44.534;18.700;2024-02-26T09:26:37;53.17;;;34.95;;
25511;SDS011;13414;44.534;18.700;2024-02-26T09:29:05;49.88;;;34.65;;
25511;SDS011;13414;44.534;18.700;2024-02-26T09:31:33;54.60;;;37.08;;
25511;SDS011;13414;44.534;18.700;2024-02-26T09:34:02;54.38;;;36.03;;
25511;SDS011;13414;44.534;18.700;2024-02-26T09:36:30;51.28;;;35.47;;
25511;SDS011;13414;44.534;18.700;2024-02-26T09:38:57;46.40;;;31.75;;
25511;SDS011;13414;44.534;18.700;2024-02-26T09:41:30;46.50;;;32.80;;
25511;SDS011;13414;44.534;18.700;2024-02-26T09:43:58;46.03;;;31.88;;
25511;SDS011;13414;44.534;18.700;2024-02-26T09:46:29;44.17;;;30.73;;
25511;SDS011;13414;44.534;18.700;2024-02-26T09:48:58;45.65;;;31.45;;
25511;SDS011;13414;44.534;18.700;2024-02-26T09:51:28;44.15;;;31.40;;
25511;SDS011;13414;44.534;18.700;2024-02-26T09:53:58;43.30;;;31.38;;
25511;SDS011;13414;44.534;18.700;2024-02-26T09:56:27;45.50;;;30.52;;
25511;SDS011;13414;44.534;18.700;2024-02-26T09:59:06;49.20;;;30.23;;
25511;SDS011;13414;44.534;18.700;2024-02-26T10:01:42;47.85;;;31.90;;
25511;SDS011;13414;44.534;18.700;2024-02-26T10:04:11;44.65;;;29.52;;
25511;SDS011;13414;44.534;18.700;2024-02-26T10:06:41;42.15;;;28.42;;
25511;SDS011;13414;44.534;18.700;2024-02-26T10:09:10;47.65;;;30.05;;
25511;SDS011;13414;44.534;18.700;2024-02-26T10:11:41;51.30;;;34.40;;
25511;SDS011;13414;44.534;18.700;2024-02-26T10:14:09;40.95;;;27.80;;
25511;SDS011;13414;44.534;18.700;2024-02-26T10:16:37;20.90;;;13.73;;
25511;SDS011;13414;44.534;18.700;2024-02-26T10:19:04;36.85;;;22.92;;
25511;SDS011;13414;44.534;18.700;2024-02-26T10:21:32;23.05;;;13.63;;
25511;SDS011;13414;44.534;18.700;2024-02-26T10:24:00;15.77;;;9.65;;
25511;SDS011;13414;44.534;18.700;2024-02-26T10:26:28;13.73;;;7.05;;
25511;SDS011;13414;44.534;18.700;2024-02-26T10:28:55;15.18;;;7.70;;
25511;SDS011;13414;44.534;18.700;2024-02-26T10:31:27;8.75;;;5.50;;
25511;SDS011;13414;44.534;18.700;2024-02-26T10:33:55;9.43;;;5.55;;
25511;SDS011;13414;44.534;18.700;2024-02-26T10:36:25;12.90;;;6.10;;
25511;SDS011;13414;44.534;18.700;2024-02-26T10:38:54;8.52;;;4.00;;
25511;SDS011;13414;44.534;18.700;2024-02-26T10:41:23;7.65;;;4.68;;
25511;SDS011;13414;44.534;18.700;2024-02-26T10:43:51;9.85;;;4.32;;
25511;SDS011;13414;44.534;18.700;2024-02-26T10:46:18;13.13;;;7.30;;
25511;SDS011;13414;44.534;18.700;2024-02-26T10:48:49;13.13;;;6.80;;
25511;SDS011;13414;44.534;18.700;2024-02-26T10:51:17;7.63;;;4.07;;
25511;SDS011;13414;44.534;18.700;2024-02-26T10:53:51;6.28;;;3.65;;
25511;SDS011;13414;44.534;18.700;2024-02-26T10:56:26;7.03;;;3.38;;
25511;SDS011;13414;44.534;18.700;2024-02-26T10:58:54;7.93;;;4.18;;
25511;SDS011;13414;44.534;18.700;2024-02-26T11:01:22;10.77;;;4.03;;
25511;SDS011;13414;44.534;18.700;2024-02-26T11:03:52;10.45;;;4.25;;
25511;SDS011;13414;44.534;18.700;2024-02-26T11:06:21;9.00;;;4.28;;
25511;SDS011;13414;44.534;18.700;2024-02-26T11:08:49;8.18;;;4.50;;
25511;SDS011;13414;44.534;18.700;2024-02-26T11:11:17;9.98;;;3.92;;
25511;SDS011;13414;44.534;18.700;2024-02-26T11:13:47;7.45;;;3.50;;
25511;SDS011;13414;44.534;18.700;2024-02-26T11:16:16;7.10;;;3.65;;
25511;SDS011;13414;44.534;18.700;2024-02-26T11:18:46;15.15;;;3.97;;
25511;SDS011;13414;44.534;18.700;2024-02-26T11:21:17;9.80;;;3.58;;
25511;SDS011;13414;44.534;18.700;2024-02-26T11:23:53;23.95;;;14.40;;
25511;SDS011;13414;44.534;18.700;2024-02-26T11:26:21;8.32;;;4.43;;
25511;SDS011;13414;44.534;18.700;2024-02-26T11:28:51;10.43;;;3.85;;
25511;SDS011;13414;44.534;18.700;2024-02-26T11:31:19;9.68;;;6.20;;
25511;SDS011;13414;44.534;18.700;2024-02-26T11:33:54;9.07;;;3.58;;
25511;SDS011;13414;44.534;18.700;2024-02-26T11:36:23;5.80;;;3.22;;
25511;SDS011;13414;44.534;18.700;2024-02-26T11:38:51;11.32;;;5.57;;
25511;SDS011;13414;44.534;18.700;2024-02-26T11:41:19;11.60;;;4.47;;
25511;SDS011;13414;44.534;18.700;2024-02-26T11:43:52;6.88;;;4.22;;
25511;SDS011;13414;44.534;18.700;2024-02-26T11:46:26;18.45;;;4.75;;
25511;SDS011;13414;44.534;18.700;2024-02-26T11:48:59;12.05;;;4.00;;
25511;SDS011;13414;44.534;18.700;2024-02-26T11:51:27;10.18;;;4.50;;
25511;SDS011;13414;44.534;18.700;2024-02-26T11:53:59;10.57;;;7.10;;
25511;SDS011;13414;44.534;18.700;2024-02-26T11:56:26;11.43;;;5.80;;
25511;SDS011;13414;44.534;18.700;2024-02-26T11:59:00;15.73;;;6.70;;
25511;SDS011;13414;44.534;18.700;2024-02-26T12:01:39;10.63;;;5.05;;
25511;SDS011;13414;44.534;18.700;2024-02-26T12:04:16;12.60;;;6.78;;
25511;SDS011;13414;44.534;18.700;2024-02-26T12:06:46;6.32;;;4.13;;
25511;SDS011;13414;44.534;18.700;2024-02-26T12:12:00;12.98;;;4.25;;
25511;SDS011;13414;44.534;18.700;2024-02-26T12:14:32;12.93;;;5.43;;
25511;SDS011;13414;44.534;18.700;2024-02-26T12:17:01;20.05;;;4.45;;
25511;SDS011;13414;44.534;18.700;2024-02-26T12:19:32;10.40;;;5.05;;
25511;SDS011;13414;44.534;18.700;2024-02-26T12:22:01;11.25;;;4.93;;
25511;SDS011;13414;44.534;18.700;2024-02-26T12:24:29;9.38;;;3.50;;
25511;SDS011;13414;44.534;18.700;2024-02-26T12:26:56;7.22;;;3.47;;
25511;SDS011;13414;44.534;18.700;2024-02-26T12:29:24;9.52;;;4.50;;
25511;SDS011;13414;44.534;18.700;2024-02-26T12:31:53;12.52;;;5.63;;
25511;SDS011;13414;44.534;18.700;2024-02-26T12:34:20;7.45;;;4.00;;
25511;SDS011;13414;44.534;18.700;2024-02-26T12:36:48;8.45;;;3.88;;
25511;SDS011;13414;44.534;18.700;2024-02-26T12:39:16;8.00;;;3.70;;
25511;SDS011;13414;44.534;18.700;2024-02-26T12:41:45;13.80;;;4.40;;
25511;SDS011;13414;44.534;18.700;2024-02-26T12:44:15;9.95;;;4.70;;
25511;SDS011;13414;44.534;18.700;2024-02-26T12:49:15;14.68;;;7.10;;
25511;SDS011;13414;44.534;18.700;2024-02-26T12:51:43;10.00;;;3.90;;
25511;SDS011;13414;44.534;18.700;2024-02-26T12:54:11;12.25;;;6.18;;
25511;SDS011;13414;44.534;18.700;2024-02-26T12:56:40;11.73;;;4.20;;
25511;SDS011;13414;44.534;18.700;2024-02-26T12:59:08;24.92;;;14.35;;
25511;SDS011;13414;44.534;18.700;2024-02-26T13:01:36;11.13;;;5.35;;
25511;SDS011;13414;44.534;18.700;2024-02-26T13:04:04;10.05;;;4.50;;
25511;SDS011;13414;44.534;18.700;2024-02-26T13:06:33;8.80;;;4.03;;
25511;SDS011;13414;44.534;18.700;2024-02-26T13:09:01;10.80;;;7.28;;
25511;SDS011;13414;44.534;18.700;2024-02-26T13:11:29;12.77;;;5.10;;
25511;SDS011;13414;44.534;18.700;2024-02-26T13:13:58;10.10;;;4.72;;
25511;SDS011;13414;44.534;18.700;2024-02-26T13:16:26;15.45;;;5.45;;
25511;SDS011;13414;44.534;18.700;2024-02-26T13:18:54;11.00;;;5.20;;
25511;SDS011;13414;44.534;18.700;2024-02-26T13:21:21;12.27;;;5.93;;
25511;SDS011;13414;44.534;18.700;2024-02-26T13:23:52;14.57;;;5.55;;
25511;SDS011;13414;44.534;18.700;2024-02-26T13:26:23;16.25;;;5.93;;
25511;SDS011;13414;44.534;18.700;2024-02-26T13:29:00;14.48;;;6.00;;
25511;SDS011;13414;44.534;18.700;2024-02-26T13:31:29;9.38;;;5.40;;
25511;SDS011;13414;44.534;18.700;2024-02-26T13:33:56;12.13;;;6.32;;
25511;SDS011;13414;44.534;18.700;2024-02-26T13:36:24;12.32;;;6.50;;
25511;SDS011;13414;44.534;18.700;2024-02-26T13:38:54;19.25;;;7.70;;
25511;SDS011;13414;44.534;18.700;2024-02-26T13:41:22;9.80;;;5.20;;
25511;SDS011;13414;44.534;18.700;2024-02-26T13:43:51;11.73;;;5.50;;
25511;SDS011;13414;44.534;18.700;2024-02-26T13:46:19;9.68;;;5.25;;
25511;SDS011;13414;44.534;18.700;2024-02-26T13:48:47;13.07;;;7.18;;
25511;SDS011;13414;44.534;18.700;2024-02-26T13:51:14;12.10;;;5.00;;
25511;SDS011;13414;44.534;18.700;2024-02-26T13:53:42;10.68;;;5.35;;
25511;SDS011;13414;44.534;18.700;2024-02-26T13:56:12;10.93;;;6.50;;
25511;SDS011;13414;44.534;18.700;2024-02-26T13:58:40;11.60;;;5.32;;
25511;SDS011;13414;44.534;18.700;2024-02-26T14:01:08;15.73;;;6.63;;
25511;SDS011;13414;44.534;18.700;2024-02-26T14:03:35;12.55;;;8.25;;
25511;SDS011;13414;44.534;18.700;2024-02-26T14:06:02;16.90;;;7.25;;
25511;SDS011;13414;44.534;18.700;2024-02-26T14:08:30;12.70;;;5.10;;
25511;SDS011;13414;44.534;18.700;2024-02-26T14:10:58;16.35;;;7.28;;
25511;SDS011;13414;44.534;18.700;2024-02-26T14:13:26;15.05;;;7.45;;
25511;SDS011;13414;44.534;18.700;2024-02-26T14:15:54;11.90;;;7.18;;
25511;SDS011;13414;44.534;18.700;2024-02-26T14:18:22;16.85;;;8.05;;
25511;SDS011;13414;44.534;18.700;2024-02-26T14:20:50;15.07;;;6.68;;
25511;SDS011;13414;44.534;18.700;2024-02-26T14:23:17;11.00;;;6.05;;
25511;SDS011;13414;44.534;18.700;2024-02-26T14:25:46;13.07;;;6.03;;
25511;SDS011;13414;44.534;18.700;2024-02-26T14:28:13;11.90;;;6.07;;
25511;SDS011;13414;44.534;18.700;2024-02-26T14:30:42;12.77;;;5.47;;
25511;SDS011;13414;44.534;18.700;2024-02-26T14:33:10;12.00;;;5.78;;
25511;SDS011;13414;44.534;18.700;2024-02-26T14:35:37;9.63;;;5.07;;
25511;SDS011;13414;44.534;18.700;2024-02-26T14:38:07;9.45;;;5.80;;
25511;SDS011;13414;44.534;18.700;2024-02-26T14:40:35;12.82;;;5.68;;
25511;SDS011;13414;44.534;18.700;2024-02-26T14:43:02;13.48;;;6.78;;
25511;SDS011;13414;44.534;18.700;2024-02-26T14:45:31;15.13;;;7.28;;
25511;SDS011;13414;44.534;18.700;2024-02-26T14:48:00;17.23;;;9.02;;